1896 Cyclonic Storm NOT_NAMED (1896146N13070)


IBTrACS version v04r00. Visit IBTrACS website for data access.
Please direct all questions to the IBTrACS Q and A forum

Storm track - Intensity - Wind Radii - Intensity Data - Source Data - All data

Summary Information

Storm ID 1896146N13070
Start May 25 00Z
Max Intensity 45 kt (May 28 00Z)
End May 31 03Z
ATCF IDs
Track status Best track data.

Storm track plot

Map of storm track

Intensity plots

Map of storm track

Radial wind information

No radial wind information for this storm


Position and Intensity Table

BASIN ISO_TIME_________ NATURE LAT LON DS824 WIND
degrees north degrees east kts
NI 1896-05-25 00:00:00 TS 13.50 69.50 30
NI 03:00:00 TS 13.62 69.54 30
NI 06:00:00 TS 13.84 69.57 30
NI 09:00:00 TS 14.08 69.59 30
NI 12:00:00 TS 14.30 69.60 30
NI 15:00:00 TS 14.48 69.60 30
NI 18:00:00 TS 14.64 69.60 30
NI 21:00:00 TS 14.79 69.57 30
NI 1896-05-26 00:00:00 TS 14.93 69.52 30
NI 03:00:00 TS 15.08 69.47 30
NI 06:00:00 TS 15.22 69.43 30
NI 09:00:00 TS 15.35 69.39 30
NI 12:00:00 TS 15.45 69.33 30
NI 15:00:00 TS 15.53 69.25 30
NI 18:00:00 TS 15.58 69.16 30
NI 21:00:00 TS 15.63 69.07 30
NI 1896-05-27 00:00:00 TS 15.68 68.96 30
NI 03:00:00 TS 15.75 68.83 31
NI 06:00:00 TS 15.84 68.68 32
NI 09:00:00 TS 15.90 68.53 33
NI 12:00:00 TS 15.96 68.38 34
NI 15:00:00 TS 16.02 68.25 36
NI 18:00:00 TS 16.07 68.15 39
NI 21:00:00 TS 16.11 68.04 42
NI 1896-05-28 00:00:00 TS 16.17 67.89 45
NI 03:00:00 TS 16.27 67.67 45
NI 06:00:00 TS 16.40 67.36 45
NI 09:00:00 TS 16.52 67.02 45
NI 12:00:00 TS 16.64 66.67 45
NI 15:00:00 TS 16.75 66.37 45
NI 18:00:00 TS 16.85 66.13 45
NI 21:00:00 TS 16.94 65.90 45
NI 1896-05-29 00:00:00 TS 17.04 65.64 45
NI 03:00:00 TS 17.17 65.32 45
NI 06:00:00 TS 17.32 64.91 45
NI 09:00:00 TS 17.48 64.47 45
NI 12:00:00 TS 17.63 64.02 45
NI 15:00:00 TS 17.75 63.60 45
NI 18:00:00 TS 17.86 63.20 45
NI 21:00:00 TS 17.96 62.80 45
NI 1896-05-30 00:00:00 TS 18.05 62.40 45
NI 03:00:00 TS 18.15 62.00 45
NI 06:00:00 TS 18.25 61.60 45
NI 09:00:00 TS 18.35 61.20 45
NI 12:00:00 TS 18.45 60.80 45
NI 15:00:00 TS 18.55 60.40 45
NI 18:00:00 TS 18.64 60.03 45
NI 21:00:00 TS 18.74 59.64 45
NI 1896-05-31 00:00:00 TS 18.83 59.27 45
NI 03:00:00 NR 18.90 59.00

Source Information

Agency Information
USA
TOKYO
CMA
HKO
NEWDELHI
REUNION
BOM
NADI
WELLINGTON
DS824 n_ind.dat:216:NOT NAMED
TD9636 cons_worldwide_trop_cyclone_18710101-19891231-004:Line=2170
TD9635
NEUMANN
MLC

All available IBTrACS Data

SEASON BASIN SUBBASIN ISO_TIME_________ NATURE LAT LON DIST2LAND LANDFALL IFLAG USA SSHS DS824 LAT DS824 LON DS824 STAGE DS824 WIND TD9636 LAT TD9636 LON TD9636 STAGE STORM SPEED STORM DIR
Year degrees north degrees east km km 1 degrees north degrees east kts degrees north degrees east kts degrees
1896 NI AS 1896-05-25 00:00:00 TS 13.50 69.50 507 503 _________O____ -1 13.50 69.50 TC 30 3 20
1896 NI AS 03:00:00 TS 13.62 69.54 503 484 _________PO___ -1 13.69 69.56 TC 30 13.50 69.50 1 3 11
1896 NI AS 06:00:00 TS 13.84 69.57 484 471 _________OP___ -1 13.90 69.60 TC 30 13.74 69.54 1 5 6
1896 NI AS 09:00:00 TS 14.08 69.59 471 464 _________PP___ -1 14.16 69.61 TC 30 13.98 69.57 1 5 2
1896 NI AS 12:00:00 TS 14.30 69.60 464 455 _________OP___ -1 14.40 69.60 TC 30 14.20 69.59 1 4 0
1896 NI AS 15:00:00 TS 14.48 69.60 455 449 _________PO___ -1 14.56 69.61 TC 30 14.40 69.60 1 3 0
1896 NI AS 18:00:00 TS 14.64 69.60 449 439 _________OP___ -1 14.70 69.60 TC 30 14.58 69.59 1 3 354
1896 NI AS 21:00:00 TS 14.79 69.57 439 439 _________PP___ -1 14.85 69.56 TC 30 14.73 69.57 1 3 346
1896 NI AS 1896-05-26 00:00:00 TS 14.93 69.52 444 435 _________OP___ -1 15.00 69.50 TC 30 14.87 69.54 1 3 343
1896 NI AS 03:00:00 TS 15.08 69.47 435 431 _________PO___ -1 15.16 69.45 TC 30 15.00 69.50 1 3 343
1896 NI AS 06:00:00 TS 15.22 69.43 441 438 _________OP___ -1 15.30 69.40 TC 30 15.14 69.47 1 3 344
1896 NI AS 09:00:00 TS 15.35 69.39 438 434 _________PP___ -1 15.41 69.36 TC 30 15.28 69.42 1 2 337
1896 NI AS 12:00:00 TS 15.45 69.33 442 442 _________OP___ -1 15.50 69.30 TC 30 15.40 69.37 1 2 324
1896 NI AS 15:00:00 TS 15.53 69.25 442 442 _________PO___ -1 15.56 69.21 TC 30 15.50 69.30 1 2 309
1896 NI AS 18:00:00 TS 15.58 69.16 449 449 _________OP___ -1 15.60 69.10 TC 30 15.57 69.22 1 2 300
1896 NI AS 21:00:00 TS 15.63 69.07 460 460 _________PP___ -1 15.64 69.01 TC 30 15.61 69.13 1 2 296
1896 NI AS 1896-05-27 00:00:00 TS 15.68 68.96 468 468 _________OP___ -1 15.70 68.90 TC 30 15.65 69.02 1 3 298
1896 NI AS 03:00:00 TS 15.75 68.83 487 487 _________PO___ -1 15.80 68.76 TC 31 15.70 68.90 1 3 300
1896 NI AS 06:00:00 TS 15.84 68.68 497 497 _________OP___ -1 15.90 68.60 TC 32 15.77 68.76 1 3 298
1896 NI AS 09:00:00 TS 15.90 68.53 517 517 _________PP___ -1 15.96 68.44 TC 33 15.85 68.61 1 3 294
1896 NI AS 12:00:00 TS 15.96 68.38 526 526 _________OP___ -1 16.00 68.30 TC 34 15.93 68.45 1 3 295
1896 NI AS 15:00:00 TS 16.02 68.25 536 546 _________PO___ -1 16.05 68.20 TC 36 16.00 68.30 2 2 297
1896 NI AS 18:00:00 TS 16.07 68.15 546 546 _________OP___ -1 16.10 68.10 TC 39 16.04 68.20 2 2 293
1896 NI AS 21:00:00 TS 16.11 68.04 567 567 _________PP___ -1 16.13 67.98 TC 42 16.08 68.10 2 3 290
1896 NI AS 1896-05-28 00:00:00 TS 16.17 67.89 575 575 _________OP___ -1 16.20 67.80 TC 45 16.13 67.98 2 4 294
1896 NI AS 03:00:00 TS 16.27 67.67 590 590 _________PO___ -1 16.34 67.53 TC 45 16.20 67.80 3 6 295
1896 NI AS 06:00:00 TS 16.40 67.36 599 599 _________OP___ -1 16.50 67.20 TC 45 16.31 67.52 3 7 292
1896 NI AS 09:00:00 TS 16.52 67.02 614 611 _________PP___ -1 16.61 66.84 TC 45 16.44 67.19 3 7 289
1896 NI AS 12:00:00 TS 16.64 66.67 623 620 _________OP___ -1 16.70 66.50 TC 45 16.57 66.84 3 7 290
1896 NI AS 15:00:00 TS 16.75 66.37 634 625 _________PO___ -1 16.80 66.23 TC 45 16.70 66.50 3 6 293
1896 NI AS 18:00:00 TS 16.85 66.13 645 637 _________OP___ -1 16.90 66.00 TC 45 16.80 66.26 3 5 293
1896 NI AS 21:00:00 TS 16.94 65.90 651 643 _________PP___ -1 16.99 65.77 TC 45 16.89 66.03 3 5 293
1896 NI AS 1896-05-29 00:00:00 TS 17.04 65.64 666 658 _________OP___ -1 17.10 65.50 TC 45 16.99 65.79 3 6 292
1896 NI AS 03:00:00 TS 17.17 65.32 673 673 _________PO___ -1 17.24 65.13 TC 45 17.10 65.50 3 8 292
1896 NI AS 06:00:00 TS 17.32 64.91 696 695 _________OP___ -1 17.40 64.70 TC 45 17.24 65.12 3 9 291
1896 NI AS 09:00:00 TS 17.48 64.47 698 650 _________PP___ -1 17.56 64.25 TC 45 17.40 64.70 3 9 290
1896 NI AS 12:00:00 TS 17.63 64.02 650 611 _________OP___ -1 17.70 63.80 TC 45 17.56 64.25 3 9 288
1896 NI AS 15:00:00 TS 17.75 63.60 604 565 _________PO___ -1 17.81 63.39 TC 45 17.70 63.80 3 8 286
1896 NI AS 18:00:00 TS 17.86 63.20 565 525 _________OP___ -1 17.90 63.00 TC 45 17.81 63.39 3 8 285
1896 NI AS 21:00:00 TS 17.96 62.80 525 489 _________PP___ -1 18.00 62.60 TC 45 17.91 62.99 3 8 285
1896 NI AS 1896-05-30 00:00:00 TS 18.05 62.40 483 448 _________OP___ -1 18.10 62.20 TC 45 18.01 62.60 3 8 284
1896 NI AS 03:00:00 TS 18.15 62.00 448 407 _________PO___ -1 18.20 61.80 TC 45 18.10 62.20 3 8 284
1896 NI AS 06:00:00 TS 18.25 61.60 407 366 _________OP___ -1 18.30 61.40 TC 45 18.20 61.80 3 8 285
1896 NI AS 09:00:00 TS 18.35 61.20 366 323 _________PP___ -1 18.40 61.00 TC 45 18.30 61.40 3 8 285
1896 NI AS 12:00:00 TS 18.45 60.80 323 279 _________OP___ -1 18.50 60.60 TC 45 18.40 61.00 3 8 285
1896 NI AS 15:00:00 TS 18.55 60.40 279 235 _________PO___ -1 18.60 60.20 TC 45 18.50 60.60 3 8 285
1896 NI AS 18:00:00 TS 18.64 60.03 235 202 _________OP___ -1 18.70 59.80 TC 45 18.60 60.20 3 7 285
1896 NI AS 21:00:00 TS 18.74 59.64 192 159 _________PP___ -1 18.80 59.40 TC 45 18.70 59.80 3 7 285
1896 NI AS 1896-05-31 00:00:00 TS 18.83 59.27 159 126 _________OP___ -1 18.90 59.00 TC 45 18.80 59.40 3 6 285
1896 NI AS 03:00:00 NR 18.90 59.00 126 __________O___ -1 TC 18.90 59.00 3 5 285